Ana Sayfa
METAR-TAF:

METAR-TAF

Havaalanları :

Taunton Municipal Airport (King Field)

Taunton, Massachusetts, Amerika Birleşik Devletleri

Enlem: 41-52-32N, Boylam: 071-01-16W, yükseklik: 13 m

Güncel hava durumu gözlemi

Rapor saat 12:52 UTC de 25 dakika önce yapıldı.
Rüzgar değişken yönden 5 kt
Sıcaklık 22°C
Nem 69%
Basınç 1014 hPa
Görüş mesafesi: 16.1 km
1800 ft yükseklikte az bulutlu

METAR: KTAN 171252Z AUTO VRB05KT 10SM FEW018 22/16 A2994 RMK AO2 SLP137 T02220161

Saat: 09:17 (13:17 UTC)


TAF: eksik

4.000'den fazla havaalanı için hava durumu gözlemleri ve tahminleri (METAR ve TAF raporları).

Kullanılabilir istasyonlar harita üzerinde sarı ve kırmızı noktalarla gösterilir.

İstasyonun adını görmek için fareyi noktanın üzerinde gezdirin.

Sonrasında hava gözlem ve tahminlerini görmek için tıklayın.

Haritayı değiştirmek için: yaklaştırmak için siyah artı işaretli yeşil düğmeye ve uzaklaştırmak için de eksi işaretli düğmeye hızla tıklayın; bitişik haritalar için yeşil okları kullanın.


METAR-TAF: